メインページ
METAR-TAF:

METAR-TAF

空港 :

Dease Lake, ブリティッシュコロンビア州, カナダ

緯度: 58-25-20N, 経度: 130-01-53W, 海抜: 803m

現時点の気象観測

当レポートは1時間4分前の06:00(UTC)に作成
変向風 2kt
気温 -2°C
湿度 63%
気圧 1012 hPa
視程: 14.5km
晴天

METAR: CYDL 210600Z AUTO VRB02KT 9SM CLR M02/M08 A2988 RMK SLP145

時間: 00:04 (07:04 UTC)

予報

当レポートは7時間26分前の23:38(UTC)に作成
予報は21日の 00時(UTC)から 21日の 02時(UTC)まで有効
変向風 3kt
視程: 10km
高度7000ftの雲は散在している
高度20000ftの千切れ雲あり
21日の 00時(UTC)から 21日の 02時(UTC)まで一時的に
高度7000ftの千切れ雲あり

TAF: CYDL 202338Z 2100/2102 VRB03KT P6SM SCT070 BKN200 TEMPO 2100/2102 BKN070 RMK FCST BASED ON AUTO OBS. NXT FCST WILL BE ISSUED AT 211545Z

4,000以上の空港の気象観測と天気予報(METAR報とTAF報)

利用可能な観測所は地図上に黄色い丸と赤い丸で示す。

丸の上にカーソルを重ねると観測所名を参照できる。

次にクリックすると気象観測と天気予報を参照できる。

マップの切り替え:黒色「×」印の緑ボタンをクリックして拡大、「-」印の緑ボタンをクリックして縮小、緑色の三角印をクリックして隣りの地図に切り替え


METAR-TAF: